Time;durP1;ratioP1;P1;durP2;ratioP2;P2;SDS_P1;SDS_P2;PMS_P1;PMS_P2;Temp;Humidity;BMP_temperature;BMP_pressure;BME280_temperature;BME280_humidity;BME280_pressure;Samples;Min_cycle;Max_cycle;Signal;HPM_P1;HPM_P2
2023/03/01 00:00:49;;;;;;;3.15;2.40;;;;;;;;;;5049463;28;20036;-68
2023/03/01 00:03:14;;;;;;;3.17;2.40;;;;;;;;;;5063673;28;20040;-69
2023/03/01 00:05:46;;;;;;;3.53;2.40;;;;;;;;;;5056830;28;20311;-72
2023/03/01 00:08:11;;;;;;;3.35;2.30;;;;;;;;;;5061413;28;20107;-70
2023/03/01 00:10:36;;;;;;;3.10;2.15;;;;;;;;;;5016520;28;20013;-69
2023/03/01 00:13:02;;;;;;;3.38;2.30;;;;;;;;;;5039493;28;20094;-69
2023/03/01 00:15:27;;;;;;;3.70;2.75;;;;;;;;;;5042245;28;20027;-69
2023/03/01 00:17:52;;;;;;;2.87;2.30;;;;;;;;;;5045354;28;20541;-69
2023/03/01 00:20:17;;;;;;;2.90;2.03;;;;;;;;;;5068777;28;20255;-70
2023/03/01 00:22:43;;;;;;;3.27;2.20;;;;;;;;;;5037543;28;20264;-69
2023/03/01 00:25:09;;;;;;;2.70;2.20;;;;;;;;;;5069384;28;20040;-69
2023/03/01 00:27:34;;;;;;;3.28;2.20;;;;;;;;;;5044587;28;20020;-69
2023/03/01 00:29:59;;;;;;;2.78;2.10;;;;;;;;;;5053811;28;20033;-69
2023/03/01 00:32:24;;;;;;;2.92;2.40;;;;;;;;;;5024425;28;20546;-69
2023/03/01 00:34:53;;;;;;;2.73;2.13;;;;;;;;;;5037202;28;20035;-70
2023/03/01 00:37:20;;;;;;;3.00;2.30;;;;;;;;;;5030739;28;20778;-70
2023/03/01 00:39:45;;;;;;;3.00;2.38;;;;;;;;;;5065733;28;20125;-69
2023/03/01 00:42:11;;;;;;;3.03;2.40;;;;;;;;;;5061408;28;20052;-69
2023/03/01 00:44:36;;;;;;;3.03;2.10;;;;;;;;;;5067668;28;20290;-70
2023/03/01 00:47:01;;;;;;;3.00;2.20;;;;;;;;;;5032632;28;20082;-69
2023/03/01 00:49:27;;;;;;;2.85;2.20;;;;;;;;;;5066633;28;20099;-70
2023/03/01 00:51:53;;;;;;;3.53;2.45;;;;;;;;;;5058540;28;20053;-70
2023/03/01 00:54:18;;;;;;;3.35;2.40;;;;;;;;;;5068118;28;20021;-69
2023/03/01 00:56:43;;;;;;;3.00;2.13;;;;;;;;;;5042264;28;20024;-70
2023/03/01 00:59:08;;;;;;;3.43;2.37;;;;;;;;;;5064258;28;20024;-69
2023/03/01 01:01:33;;;;;;;2.90;1.97;;;;;;;;;;5066576;28;20350;-68
2023/03/01 01:04:00;;;;;;;3.40;2.30;;;;;;;;;;5068067;28;20705;-69
2023/03/01 01:06:29;;;;;;;2.55;2.03;;;;;;;;;;5049561;28;20301;-68
2023/03/01 01:08:54;;;;;;;3.03;1.88;;;;;;;;;;5049709;28;20016;-68
2023/03/01 01:11:20;;;;;;;3.23;2.27;;;;;;;;;;5068169;28;20412;-68
2023/03/01 01:13:45;;;;;;;3.13;2.35;;;;;;;;;;5031853;28;20310;-68
2023/03/01 01:16:10;;;;;;;2.92;2.00;;;;;;;;;;5052190;28;21508;-69
2023/03/01 01:18:36;;;;;;;2.38;1.95;;;;;;;;;;5067260;28;20075;-69
2023/03/01 01:21:08;;;;;;;3.47;2.33;;;;;;;;;;5065366;28;20037;-69
2023/03/01 01:23:33;;;;;;;2.45;1.70;;;;;;;;;;5047643;28;20512;-70
2023/03/01 01:26:03;;;;;;;3.72;2.17;;;;;;;;;;5056503;28;20063;-68
2023/03/01 01:28:28;;;;;;;2.78;1.90;;;;;;;;;;5033487;28;20345;-69
2023/03/01 01:30:53;;;;;;;2.73;2.00;;;;;;;;;;5062225;28;20032;-69
2023/03/01 01:33:18;;;;;;;3.00;2.03;;;;;;;;;;5041377;28;20334;-68
2023/03/01 01:35:44;;;;;;;2.73;1.97;;;;;;;;;;5048408;28;20048;-68
2023/03/01 01:38:10;;;;;;;3.42;1.92;;;;;;;;;;5029357;28;20590;-69
2023/03/01 01:40:35;;;;;;;3.00;1.97;;;;;;;;;;5063277;28;20150;-69
2023/03/01 01:43:00;;;;;;;2.50;1.80;;;;;;;;;;5044571;28;20291;-69
2023/03/01 01:45:30;;;;;;;2.63;1.67;;;;;;;;;;5066838;28;20044;-69
2023/03/01 01:47:57;;;;;;;2.70;2.05;;;;;;;;;;5056798;28;20294;-69
2023/03/01 01:50:23;;;;;;;2.72;1.98;;;;;;;;;;5031742;28;20117;-68
2023/03/01 01:52:48;;;;;;;2.22;1.75;;;;;;;;;;5045641;28;20070;-71
2023/03/01 01:55:20;;;;;;;2.95;1.70;;;;;;;;;;5048786;28;20036;-70
2023/03/01 01:57:46;;;;;;;2.40;1.77;;;;;;;;;;5066882;28;20031;-70
2023/03/01 02:00:16;;;;;;;2.42;1.80;;;;;;;;;;5066742;28;20044;-70
2023/03/01 02:02:42;;;;;;;2.67;1.90;;;;;;;;;;5048280;28;20028;-70
2023/03/01 02:05:26;;;;;;;2.78;1.88;;;;;;;;;;5066085;28;20048;-69
2023/03/01 02:07:51;;;;;;;2.50;1.80;;;;;;;;;;5067068;28;20439;-70
2023/03/01 02:10:17;;;;;;;2.03;1.70;;;;;;;;;;5066174;28;20044;-71
2023/03/01 02:12:42;;;;;;;2.55;1.88;;;;;;;;;;5039796;28;20326;-69
2023/03/01 02:15:07;;;;;;;2.30;1.80;;;;;;;;;;5059209;28;20135;-70
2023/03/01 02:17:33;;;;;;;3.08;2.05;;;;;;;;;;5066747;28;20039;-70
2023/03/01 02:20:07;;;;;;;2.20;1.53;;;;;;;;;;5031840;28;20033;-69
2023/03/01 02:22:33;;;;;;;2.60;1.80;;;;;;;;;;5055628;28;20287;-69
2023/03/01 02:25:07;;;;;;;2.25;1.52;;;;;;;;;;5066000;28;20159;-69
2023/03/01 02:27:56;;;;;;;1.85;1.33;;;;;;;;;;5036739;28;20037;-70
2023/03/01 02:30:21;;;;;;;2.63;1.73;;;;;;;;;;5028478;28;20038;-69
2023/03/01 02:32:46;;;;;;;2.17;1.80;;;;;;;;;;5019691;28;20045;-69
2023/03/01 02:35:13;;;;;;;2.40;1.63;;;;;;;;;;5048612;28;20446;-68
2023/03/01 02:37:38;;;;;;;2.80;2.00;;;;;;;;;;5047929;28;20405;-69
2023/03/01 02:40:06;;;;;;;1.90;1.40;;;;;;;;;;5064656;28;20041;-69
2023/03/01 02:42:35;;;;;;;2.25;1.65;;;;;;;;;;5047906;28;20082;-69
2023/03/01 02:45:01;;;;;;;2.33;1.45;;;;;;;;;;5044832;28;20052;-70
2023/03/01 02:47:26;;;;;;;2.42;1.67;;;;;;;;;;5048645;28;20113;-69
2023/03/01 02:49:51;;;;;;;2.23;1.63;;;;;;;;;;5056932;28;20523;-69
2023/03/01 02:52:26;;;;;;;2.10;1.67;;;;;;;;;;5066344;28;20344;-72
2023/03/01 02:54:54;;;;;;;2.45;1.80;;;;;;;;;;5061497;28;20589;-69
2023/03/01 02:57:19;;;;;;;1.80;1.50;;;;;;;;;;5066206;28;20453;-70
2023/03/01 02:59:44;;;;;;;2.23;1.43;;;;;;;;;;5048410;28;20029;-69
2023/03/01 03:02:35;;;;;;;2.00;1.50;;;;;;;;;;5030014;28;20291;-68
2023/03/01 03:05:21;;;;;;;2.40;1.63;;;;;;;;;;5065691;28;20064;-69
2023/03/01 03:07:46;;;;;;;1.95;1.40;;;;;;;;;;5047794;28;20081;-71
2023/03/01 03:10:13;;;;;;;1.85;1.50;;;;;;;;;;5066267;28;20111;-70
2023/03/01 03:12:38;;;;;;;2.15;1.63;;;;;;;;;;5041798;28;20663;-70
2023/03/01 03:15:08;;;;;;;2.60;1.52;;;;;;;;;;5061661;28;20039;-69
2023/03/01 03:17:34;;;;;;;1.55;1.23;;;;;;;;;;5032160;28;20567;-70
2023/03/01 03:19:59;;;;;;;1.98;1.38;;;;;;;;;;5050062;28;20040;-70
2023/03/01 03:22:24;;;;;;;2.37;1.50;;;;;;;;;;5054713;28;20145;-69
2023/03/01 03:24:49;;;;;;;1.77;1.47;;;;;;;;;;5055732;28;20069;-71
2023/03/01 03:27:15;;;;;;;2.00;1.50;;;;;;;;;;5057045;28;20115;-70
2023/03/01 03:29:40;;;;;;;2.00;1.53;;;;;;;;;;5046011;28;20024;-69
2023/03/01 03:32:05;;;;;;;2.47;1.60;;;;;;;;;;5049955;28;20040;-71
2023/03/01 03:34:30;;;;;;;2.43;1.60;;;;;;;;;;5047594;28;20033;-69
2023/03/01 03:37:01;;;;;;;2.10;1.63;;;;;;;;;;5070173;28;20570;-70
2023/03/01 03:39:27;;;;;;;1.77;1.50;;;;;;;;;;5036381;28;20382;-70
2023/03/01 03:41:52;;;;;;;2.08;1.35;;;;;;;;;;5052664;28;20120;-70
2023/03/01 03:44:18;;;;;;;2.50;1.60;;;;;;;;;;5024478;28;20043;-69
2023/03/01 03:46:43;;;;;;;2.43;1.53;;;;;;;;;;5063538;28;20036;-70
2023/03/01 03:49:08;;;;;;;1.97;1.70;;;;;;;;;;5025022;28;20322;-69
2023/03/01 03:51:33;;;;;;;1.90;1.50;;;;;;;;;;5064286;28;20658;-68
2023/03/01 03:53:59;;;;;;;2.00;1.30;;;;;;;;;;5042540;28;20044;-67
2023/03/01 03:56:25;;;;;;;1.70;1.30;;;;;;;;;;5065427;28;20033;-69
2023/03/01 03:58:51;;;;;;;1.92;1.23;;;;;;;;;;5065147;28;20055;-69
2023/03/01 04:01:16;;;;;;;1.90;1.40;;;;;;;;;;5047598;28;20037;-72
2023/03/01 04:03:46;;;;;;;1.60;1.20;;;;;;;;;;5067910;28;20425;-68
2023/03/01 04:06:11;;;;;;;;;;;;;;;;;;5068183;28;20303;-69
2023/03/01 04:08:36;;;;;;;1.70;1.25;;;;;;;;;;5069054;28;19923;-71
2023/03/01 04:13:46;;;;;;;1.65;1.02;;;;;;;;;;5062919;28;20803;-68
2023/03/01 04:16:11;;;;;;;1.30;1.00;;;;;;;;;;5023715;28;20199;-69
2023/03/01 04:18:36;;;;;;;1.50;1.10;;;;;;;;;;5069307;28;20091;-69
2023/03/01 04:21:01;;;;;;;1.50;1.00;;;;;;;;;;5069083;28;20670;-70
2023/03/01 04:23:27;;;;;;;1.27;1.07;;;;;;;;;;5064518;28;20290;-70
2023/03/01 04:25:56;;;;;;;1.30;0.90;;;;;;;;;;5043204;28;20287;-69
2023/03/01 04:28:25;;;;;;;1.63;1.20;;;;;;;;;;5035304;28;20115;-69
2023/03/01 04:30:51;;;;;;;1.33;1.10;;;;;;;;;;5033877;28;20036;-72
2023/03/01 04:33:16;;;;;;;1.33;1.00;;;;;;;;;;5050083;28;20565;-70
2023/03/01 04:35:41;;;;;;;1.55;1.00;;;;;;;;;;5068457;28;20037;-69
2023/03/01 04:38:07;;;;;;;1.48;1.00;;;;;;;;;;5043633;28;20508;-69
2023/03/01 04:40:32;;;;;;;1.85;1.05;;;;;;;;;;5067521;28;20032;-71
2023/03/01 04:42:57;;;;;;;1.50;1.10;;;;;;;;;;5043356;28;20033;-70
2023/03/01 04:45:23;;;;;;;1.53;1.07;;;;;;;;;;5048089;28;20367;-69
2023/03/01 04:47:48;;;;;;;1.05;0.80;;;;;;;;;;5069027;28;20275;-70
2023/03/01 04:50:14;;;;;;;1.43;0.90;;;;;;;;;;5064871;28;20530;-71
2023/03/01 04:52:39;;;;;;;1.52;1.00;;;;;;;;;;5067935;28;20082;-70
2023/03/01 04:55:05;;;;;;;1.00;0.80;;;;;;;;;;5063320;28;20049;-69
2023/03/01 04:57:30;;;;;;;1.70;0.88;;;;;;;;;;5055922;28;20036;-70
2023/03/01 04:59:55;;;;;;;1.23;0.90;;;;;;;;;;5019621;28;20041;-70
2023/03/01 05:02:20;;;;;;;1.23;0.90;;;;;;;;;;5046161;28;20405;-68
2023/03/01 05:04:46;;;;;;;1.10;0.90;;;;;;;;;;5064278;28;20378;-67
2023/03/01 05:07:12;;;;;;;1.70;1.00;;;;;;;;;;5064252;28;20290;-69
2023/03/01 05:09:38;;;;;;;1.60;1.00;;;;;;;;;;5054620;28;20282;-71
2023/03/01 05:12:03;;;;;;;1.45;1.00;;;;;;;;;;5046756;28;20044;-69
2023/03/01 05:14:28;;;;;;;1.38;1.00;;;;;;;;;;5037529;28;20075;-68
2023/03/01 05:16:54;;;;;;;1.10;0.90;;;;;;;;;;5066512;28;20490;-69
2023/03/01 05:19:22;;;;;;;1.20;0.87;;;;;;;;;;5064684;28;20441;-68
2023/03/01 05:22:05;;;;;;;0.90;0.70;;;;;;;;;;5060794;28;20522;-69
2023/03/01 05:24:31;;;;;;;1.40;0.80;;;;;;;;;;5061457;28;20153;-71
2023/03/01 05:26:57;;;;;;;1.23;0.80;;;;;;;;;;5028215;28;20204;-71
2023/03/01 05:29:24;;;;;;;1.05;0.70;;;;;;;;;;5043796;28;20059;-71
2023/03/01 05:31:59;;;;;;;1.10;0.80;;;;;;;;;;5045307;28;20132;-70
2023/03/01 05:34:27;;;;;;;1.35;0.93;;;;;;;;;;5063489;28;20040;-71
2023/03/01 05:36:53;;;;;;;1.30;0.70;;;;;;;;;;5028246;28;20083;-69
2023/03/01 05:39:22;;;;;;;1.50;1.00;;;;;;;;;;5049108;28;21468;-72
2023/03/01 05:41:47;;;;;;;1.05;0.63;;;;;;;;;;5019552;28;20032;-70
2023/03/01 05:44:13;;;;;;;1.10;0.80;;;;;;;;;;5047344;28;20496;-69
2023/03/01 05:46:38;;;;;;;1.05;0.70;;;;;;;;;;5044838;28;20488;-69
2023/03/01 05:49:04;;;;;;;1.30;0.80;;;;;;;;;;5062988;28;20051;-69
2023/03/01 05:51:29;;;;;;;1.40;1.00;;;;;;;;;;5040695;28;20106;-69
2023/03/01 05:53:55;;;;;;;1.23;0.80;;;;;;;;;;5021195;28;20048;-69
2023/03/01 05:56:22;;;;;;;3.53;0.85;;;;;;;;;;5048398;28;20554;-69
2023/03/01 05:58:47;;;;;;;1.23;0.70;;;;;;;;;;5053206;28;20416;-68
2023/03/01 06:01:13;;;;;;;1.15;0.80;;;;;;;;;;5051761;28;20028;-69
2023/03/01 06:03:38;;;;;;;1.40;0.85;;;;;;;;;;5050847;28;20020;-68
2023/03/01 06:06:04;;;;;;;0.98;0.70;;;;;;;;;;5035067;28;20044;-68
2023/03/01 06:08:29;;;;;;;1.90;0.73;;;;;;;;;;5024167;28;20028;-68
2023/03/01 06:10:54;;;;;;;1.80;0.73;;;;;;;;;;5052426;28;20111;-70
2023/03/01 06:13:20;;;;;;;1.50;0.93;;;;;;;;;;5051102;28;20114;-68
2023/03/01 06:15:45;;;;;;;1.50;0.70;;;;;;;;;;5051662;28;20142;-70
2023/03/01 06:18:10;;;;;;;1.87;0.70;;;;;;;;;;5053225;28;20096;-71
2023/03/01 06:20:35;;;;;;;1.45;0.60;;;;;;;;;;5034000;28;20109;-69
2023/03/01 06:23:01;;;;;;;1.75;0.90;;;;;;;;;;5035162;28;21602;-69
2023/03/01 06:25:26;;;;;;;1.47;0.80;;;;;;;;;;5053283;28;20043;-68
2023/03/01 06:27:54;;;;;;;1.48;0.90;;;;;;;;;;5051003;28;20779;-73
2023/03/01 06:30:20;;;;;;;1.35;0.75;;;;;;;;;;5025266;28;20044;-71
2023/03/01 06:32:45;;;;;;;1.05;0.73;;;;;;;;;;5054445;28;20079;-69
2023/03/01 06:35:11;;;;;;;1.88;0.73;;;;;;;;;;5032643;28;20035;-69
2023/03/01 06:37:36;;;;;;;1.10;0.75;;;;;;;;;;5039714;28;20033;-70
2023/03/01 06:40:07;;;;;;;1.75;0.73;;;;;;;;;;5052935;28;20036;-70
2023/03/01 06:42:33;;;;;;;2.25;0.80;;;;;;;;;;5016366;28;20044;-73
2023/03/01 06:44:58;;;;;;;1.50;0.68;;;;;;;;;;5021829;28;20779;-72
2023/03/01 06:47:24;;;;;;;1.00;0.70;;;;;;;;;;5041274;28;20029;-70
2023/03/01 06:49:49;;;;;;;1.00;0.70;;;;;;;;;;5037975;28;20041;-74
2023/03/01 06:52:14;;;;;;;1.50;0.80;;;;;;;;;;5040366;28;20849;-75
2023/03/01 06:54:40;;;;;;;1.97;0.80;;;;;;;;;;5040345;28;20390;-65
2023/03/01 06:57:05;;;;;;;1.30;0.70;;;;;;;;;;5042019;28;20282;-66
2023/03/01 06:59:31;;;;;;;1.70;0.73;;;;;;;;;;5042225;28;20033;-72
2023/03/01 07:01:56;;;;;;;1.40;0.70;;;;;;;;;;5040145;28;20063;-72
2023/03/01 07:04:21;;;;;;;1.20;0.70;;;;;;;;;;5056578;28;20036;-76
2023/03/01 07:06:54;;;;;;;0.95;0.60;;;;;;;;;;5056055;28;20316;-69
2023/03/01 07:09:21;;;;;;;2.03;0.80;;;;;;;;;;5057792;28;20032;-69
2023/03/01 07:11:46;;;;;;;2.63;0.70;;;;;;;;;;5056968;28;20561;-71
2023/03/01 07:14:12;;;;;;;2.28;0.88;;;;;;;;;;5059584;28;20092;-69
2023/03/01 07:16:37;;;;;;;1.30;0.70;;;;;;;;;;5059533;28;20036;-67
2023/03/01 07:19:02;;;;;;;1.85;0.80;;;;;;;;;;5038977;28;20174;-72
2023/03/01 07:21:28;;;;;;;1.63;0.75;;;;;;;;;;5028722;28;20033;-72
2023/03/01 07:23:53;;;;;;;1.55;0.80;;;;;;;;;;5040475;28;20044;-70
2023/03/01 07:26:18;;;;;;;1.37;0.80;;;;;;;;;;5024690;28;20067;-68
2023/03/01 07:28:43;;;;;;;2.58;0.80;;;;;;;;;;5056325;28;20510;-73
2023/03/01 07:31:09;;;;;;;1.90;0.90;;;;;;;;;;5021881;28;20029;-73
2023/03/01 07:33:34;;;;;;;1.17;0.70;;;;;;;;;;5058786;28;20567;-71
2023/03/01 07:35:59;;;;;;;1.23;0.60;;;;;;;;;;5057710;28;20282;-76
2023/03/01 07:38:25;;;;;;;1.30;0.82;;;;;;;;;;5054215;28;20287;-67
2023/03/01 07:40:50;;;;;;;1.35;0.60;;;;;;;;;;5054002;28;20136;-70
2023/03/01 07:43:15;;;;;;;1.37;0.60;;;;;;;;;;5056245;28;20037;-70
2023/03/01 07:45:41;;;;;;;1.42;0.65;;;;;;;;;;5027301;28;20339;-71
2023/03/01 07:48:06;;;;;;;2.15;0.90;;;;;;;;;;5044100;28;20619;-74
2023/03/01 07:50:31;;;;;;;2.60;0.70;;;;;;;;;;5039451;28;20267;-72
2023/03/01 07:52:57;;;;;;;1.77;0.70;;;;;;;;;;5039524;28;20039;-69
2023/03/01 07:55:22;;;;;;;1.73;0.80;;;;;;;;;;5024249;28;20425;-71
2023/03/01 07:57:47;;;;;;;2.22;0.85;;;;;;;;;;5019480;28;20713;-71
2023/03/01 08:00:13;;;;;;;2.83;0.90;;;;;;;;;;5035226;28;20567;-69
2023/03/01 08:02:40;;;;;;;1.80;0.80;;;;;;;;;;5035082;28;20644;-74
2023/03/01 08:05:05;;;;;;;2.85;1.08;;;;;;;;;;5032823;28;20405;-75
2023/03/01 08:07:30;;;;;;;1.80;0.70;;;;;;;;;;5037410;28;20034;-76
2023/03/01 08:09:56;;;;;;;2.00;0.80;;;;;;;;;;5039693;28;20053;-76
2023/03/01 08:12:21;;;;;;;1.40;0.73;;;;;;;;;;5040794;28;20390;-71
2023/03/01 08:14:46;;;;;;;1.90;0.90;;;;;;;;;;5038954;28;20303;-72
2023/03/01 08:17:13;;;;;;;1.53;0.83;;;;;;;;;;5040899;28;20044;-72
2023/03/01 08:19:38;;;;;;;1.58;0.80;;;;;;;;;;5028525;28;20314;-71
2023/03/01 08:22:04;;;;;;;3.20;0.90;;;;;;;;;;5040493;28;20891;-73
2023/03/01 08:24:29;;;;;;;2.42;0.68;;;;;;;;;;5033082;28;20434;-73
2023/03/01 08:26:54;;;;;;;1.40;0.73;;;;;;;;;;5036161;28;20033;-70
2023/03/01 08:29:20;;;;;;;1.38;0.70;;;;;;;;;;5034387;28;20075;-71
2023/03/01 08:31:45;;;;;;;2.00;0.82;;;;;;;;;;5037345;28;20033;-72
2023/03/01 08:34:11;;;;;;;2.80;1.10;;;;;;;;;;5038594;28;20033;-70
2023/03/01 08:36:38;;;;;;;1.55;0.90;;;;;;;;;;5039614;28;20105;-71
2023/03/01 08:39:03;;;;;;;1.95;1.00;;;;;;;;;;5033415;28;20029;-70
2023/03/01 08:41:29;;;;;;;1.90;1.10;;;;;;;;;;5036553;28;20370;-71
2023/03/01 08:43:58;;;;;;;1.70;0.88;;;;;;;;;;5038495;28;20410;-70
2023/03/01 08:46:24;;;;;;;3.03;1.02;;;;;;;;;;5035068;28;20041;-68
2023/03/01 08:48:49;;;;;;;2.20;0.85;;;;;;;;;;5038553;28;20045;-68
2023/03/01 08:51:18;;;;;;;2.40;1.27;;;;;;;;;;5043903;28;20502;-70
2023/03/01 08:53:43;;;;;;;2.00;1.00;;;;;;;;;;5036996;28;20040;-72
2023/03/01 08:56:09;;;;;;;2.42;1.00;;;;;;;;;;5055110;28;20502;-70
2023/03/01 08:58:34;;;;;;;2.78;1.05;;;;;;;;;;5040473;28;20043;-68
2023/03/01 09:01:00;;;;;;;3.00;1.10;;;;;;;;;;5035317;28;20048;-69
2023/03/01 09:03:25;;;;;;;2.30;1.08;;;;;;;;;;5051403;28;20507;-67
2023/03/01 09:05:51;;;;;;;2.55;0.80;;;;;;;;;;5050948;28;20401;-72
2023/03/01 09:08:16;;;;;;;2.15;1.10;;;;;;;;;;5068528;28;20421;-68
2023/03/01 09:10:42;;;;;;;2.80;0.90;;;;;;;;;;5046618;28;20514;-69
2023/03/01 09:13:07;;;;;;;3.13;1.23;;;;;;;;;;5068371;28;20032;-69
2023/03/01 09:15:33;;;;;;;2.87;1.37;;;;;;;;;;5050166;28;20063;-69
2023/03/01 09:17:58;;;;;;;2.58;1.25;;;;;;;;;;5067229;28;20056;-70
2023/03/01 09:20:24;;;;;;;2.47;1.00;;;;;;;;;;5024486;28;20497;-69
2023/03/01 09:22:49;;;;;;;2.37;1.10;;;;;;;;;;5052253;28;20048;-70
2023/03/01 09:25:14;;;;;;;2.53;1.00;;;;;;;;;;5039178;28;20044;-70
2023/03/01 09:27:39;;;;;;;1.95;1.15;;;;;;;;;;5062365;28;20282;-71
2023/03/01 09:30:05;;;;;;;2.90;1.20;;;;;;;;;;5053534;28;20113;-72
2023/03/01 09:32:30;;;;;;;3.17;1.13;;;;;;;;;;5053031;28;20090;-71
2023/03/01 09:35:05;;;;;;;2.43;1.10;;;;;;;;;;5040967;28;20112;-70
2023/03/01 09:37:32;;;;;;;2.38;1.00;;;;;;;;;;5065152;28;20297;-68
2023/03/01 09:39:57;;;;;;;2.72;1.00;;;;;;;;;;5039580;28;20111;-69
2023/03/01 09:42:22;;;;;;;1.90;1.00;;;;;;;;;;5048723;28;20055;-71
2023/03/01 09:44:48;;;;;;;2.10;1.00;;;;;;;;;;5038954;28;20287;-72
2023/03/01 09:47:17;;;;;;;2.35;1.30;;;;;;;;;;5016641;28;20068;-71
2023/03/01 09:49:42;;;;;;;2.92;1.30;;;;;;;;;;5061932;28;20039;-69
2023/03/01 09:52:07;;;;;;;2.10;1.07;;;;;;;;;;5033098;28;20112;-70
2023/03/01 09:54:32;;;;;;;2.17;1.10;;;;;;;;;;5043868;28;20412;-70
2023/03/01 09:56:58;;;;;;;2.93;1.30;;;;;;;;;;5055169;28;20036;-70
2023/03/01 09:59:25;;;;;;;2.73;1.20;;;;;;;;;;5049223;28;20040;-69
2023/03/01 10:01:56;;;;;;;2.47;1.00;;;;;;;;;;5060935;28;20428;-69
2023/03/01 10:04:37;;;;;;;2.97;1.30;;;;;;;;;;5040021;28;20922;-69
2023/03/01 10:07:02;;;;;;;2.58;1.10;;;;;;;;;;5044147;28;20127;-70
2023/03/01 10:09:28;;;;;;;2.00;1.20;;;;;;;;;;5052702;28;20096;-71
2023/03/01 10:11:53;;;;;;;2.03;1.00;;;;;;;;;;5039347;28;20471;-69
2023/03/01 10:14:37;;;;;;;2.50;1.20;;;;;;;;;;5051353;28;20261;-68
2023/03/01 10:17:04;;;;;;;2.15;0.82;;;;;;;;;;5051916;28;20033;-72
2023/03/01 10:19:36;;;;;;;2.90;1.17;;;;;;;;;;5037090;28;20169;-69
2023/03/01 10:22:05;;;;;;;2.92;1.27;;;;;;;;;;5039935;28;20685;-70
2023/03/01 10:24:31;;;;;;;2.63;1.10;;;;;;;;;;5038572;28;20078;-70
2023/03/01 10:26:57;;;;;;;3.00;1.10;;;;;;;;;;5053146;28;20131;-70
2023/03/01 10:29:39;;;;;;;2.72;1.00;;;;;;;;;;5023276;28;20103;-70
2023/03/01 10:32:06;;;;;;;2.20;1.00;;;;;;;;;;5022652;28;20191;-70
2023/03/01 10:34:33;;;;;;;2.22;1.15;;;;;;;;;;5042044;28;20434;-72
2023/03/01 10:37:08;;;;;;;3.10;1.30;;;;;;;;;;5040587;28;20086;-70
2023/03/01 10:39:34;;;;;;;2.38;1.00;;;;;;;;;;5047076;28;20688;-71
2023/03/01 10:42:02;;;;;;;2.33;1.00;;;;;;;;;;5045047;28;20660;-68
2023/03/01 10:44:46;;;;;;;2.60;1.08;;;;;;;;;;5058681;28;20807;-71
2023/03/01 10:47:22;;;;;;;2.55;0.95;;;;;;;;;;5045530;28;20072;-69
2023/03/01 10:49:57;;;;;;;1.88;0.88;;;;;;;;;;5023580;28;20334;-69
2023/03/01 10:52:24;;;;;;;1.50;0.88;;;;;;;;;;5029226;28;20037;-69
2023/03/01 10:55:12;;;;;;;1.88;0.90;;;;;;;;;;5046783;28;20037;-70
2023/03/01 10:57:38;;;;;;;2.30;0.95;;;;;;;;;;5031698;28;20032;-69
2023/03/01 11:00:13;;;;;;;1.92;1.02;;;;;;;;;;5039487;28;20037;-75
2023/03/01 11:02:38;;;;;;;1.98;1.00;;;;;;;;;;5058738;28;20168;-71
2023/03/01 11:05:16;;;;;;;1.60;0.70;;;;;;;;;;5046801;28;20545;-73
2023/03/01 11:07:50;;;;;;;3.10;1.20;;;;;;;;;;5040430;28;20087;-67
2023/03/01 11:10:19;;;;;;;2.25;0.93;;;;;;;;;;5059295;28;20048;-70
2023/03/01 11:12:44;;;;;;;2.00;1.00;;;;;;;;;;5045127;28;20072;-69
2023/03/01 11:15:19;;;;;;;2.70;0.80;;;;;;;;;;5021955;28;20073;-70
2023/03/01 11:17:44;;;;;;;1.55;0.80;;;;;;;;;;5022270;28;20733;-74
2023/03/01 11:20:13;;;;;;;2.80;0.80;;;;;;;;;;5045387;28;20067;-74
2023/03/01 11:22:38;;;;;;;1.80;0.85;;;;;;;;;;5057650;28;20314;-71
2023/03/01 11:25:03;;;;;;;2.33;1.08;;;;;;;;;;5040369;28;20135;-67
2023/03/01 11:27:31;;;;;;;1.92;1.08;;;;;;;;;;5059348;28;20017;-66
2023/03/01 11:30:14;;;;;;;2.17;1.00;;;;;;;;;;5045820;28;20117;-68
2023/03/01 11:32:45;;;;;;;1.70;0.98;;;;;;;;;;5057839;28;20422;-71
2023/03/01 11:35:14;;;;;;;1.98;0.90;;;;;;;;;;5046736;28;20045;-71
2023/03/01 11:37:41;;;;;;;1.52;0.75;;;;;;;;;;5041821;28;20048;-68
2023/03/01 11:40:12;;;;;;;1.67;0.90;;;;;;;;;;5057972;28;20040;-69
2023/03/01 11:42:42;;;;;;;1.77;0.80;;;;;;;;;;5039591;28;20044;-70
2023/03/01 11:45:07;;;;;;;;;;;;;;;;;;5055456;28;20053;-72
2023/03/01 11:47:39;;;;;;;1.52;0.88;;;;;;;;;;5055358;28;19935;-70
2023/03/01 11:50:07;;;;;;;1.95;0.80;;;;;;;;;;5056518;28;20041;-68
2023/03/01 11:52:35;;;;;;;1.40;0.80;;;;;;;;;;5056118;28;20570;-75
2023/03/01 11:55:01;;;;;;;2.30;1.10;;;;;;;;;;5056260;28;20033;-72
2023/03/01 11:57:26;;;;;;;1.80;0.90;;;;;;;;;;5058055;28;20047;-72
2023/03/01 11:59:54;;;;;;;1.73;0.90;;;;;;;;;;5053287;28;20051;-67
2023/03/01 12:02:19;;;;;;;2.45;1.02;;;;;;;;;;5055777;28;20303;-68
2023/03/01 12:04:58;;;;;;;2.77;1.00;;;;;;;;;;5053820;28;20046;-67
2023/03/01 12:07:47;;;;;;;1.80;1.00;;;;;;;;;;5018745;28;20033;-69
2023/03/01 12:10:51;;;;;;;2.50;0.90;;;;;;;;;;5042303;28;20043;-71
2023/03/01 12:13:34;;;;;;;2.15;0.90;;;;;;;;;;4997194;28;20046;-74
2023/03/01 12:16:15;;;;;;;2.20;1.00;;;;;;;;;;4997682;28;20336;-70
2023/03/01 12:18:46;;;;;;;1.58;0.80;;;;;;;;;;5036559;28;20163;-71
2023/03/01 12:21:30;;;;;;;2.13;0.80;;;;;;;;;;5055031;28;20037;-70
2023/03/01 12:24:01;;;;;;;1.48;0.93;;;;;;;;;;5038696;28;20043;-72
2023/03/01 12:26:56;;;;;;;1.48;0.90;;;;;;;;;;5042694;28;20425;-71
2023/03/01 12:29:42;;;;;;;1.90;0.80;;;;;;;;;;5006354;28;20498;-71
2023/03/01 12:32:07;;;;;;;1.80;0.70;;;;;;;;;;5025396;28;20043;-70
2023/03/01 12:34:43;;;;;;;2.00;0.97;;;;;;;;;;5055698;28;20040;-69
2023/03/01 12:37:14;;;;;;;1.52;0.77;;;;;;;;;;5052583;28;20052;-68
2023/03/01 12:39:49;;;;;;;1.50;0.70;;;;;;;;;;5039539;28;20512;-71
2023/03/01 12:42:23;;;;;;;2.20;0.80;;;;;;;;;;5035485;28;20151;-70
2023/03/01 12:45:23;;;;;;;1.70;0.90;;;;;;;;;;5024532;28;20131;-68
2023/03/01 12:48:02;;;;;;;2.05;0.93;;;;;;;;;;5040708;28;21367;-69
2023/03/01 12:50:41;;;;;;;1.83;1.08;;;;;;;;;;5035603;28;20083;-70
2023/03/01 12:53:07;;;;;;;1.50;0.75;;;;;;;;;;5055055;28;20037;-71
2023/03/01 12:55:36;;;;;;;1.60;0.90;;;;;;;;;;5042371;28;20094;-67
2023/03/01 12:58:04;;;;;;;2.13;0.88;;;;;;;;;;5032734;28;20036;-69
2023/03/01 13:00:36;;;;;;;2.17;0.88;;;;;;;;;;5053648;28;20052;-70
2023/03/01 13:03:07;;;;;;;1.60;0.70;;;;;;;;;;5035686;28;20366;-68
2023/03/01 13:05:45;;;;;;;2.17;0.85;;;;;;;;;;5055265;28;20078;-70
2023/03/01 13:08:19;;;;;;;2.28;0.90;;;;;;;;;;5033737;28;20045;-69
2023/03/01 13:10:48;;;;;;;1.33;0.80;;;;;;;;;;5052353;28;20041;-68
2023/03/01 13:13:13;;;;;;;1.48;0.77;;;;;;;;;;5055229;28;20045;-69
2023/03/01 13:15:39;;;;;;;1.42;0.93;;;;;;;;;;5050371;28;20182;-69
2023/03/01 13:18:27;;;;;;;1.83;1.00;;;;;;;;;;5041183;28;20082;-68
2023/03/01 13:20:53;;;;;;;2.08;0.75;;;;;;;;;;5052213;28;20052;-68
2023/03/01 13:23:18;;;;;;;2.05;0.93;;;;;;;;;;5024127;28;20047;-68
2023/03/01 13:26:02;;;;;;;1.93;0.80;;;;;;;;;;5052787;28;20072;-71
2023/03/01 13:28:36;;;;;;;1.77;0.63;;;;;;;;;;5053958;28;20051;-69
2023/03/01 13:31:01;;;;;;;1.60;0.80;;;;;;;;;;5053776;28;20059;-74
2023/03/01 13:33:27;;;;;;;1.67;0.70;;;;;;;;;;5038409;28;20123;-73
2023/03/01 13:35:55;;;;;;;2.13;0.90;;;;;;;;;;5036238;28;20082;-70
2023/03/01 13:38:40;;;;;;;1.20;0.60;;;;;;;;;;5022126;28;20141;-72
2023/03/01 13:41:06;;;;;;;1.92;0.90;;;;;;;;;;5038852;28;20115;-73
2023/03/01 13:43:35;;;;;;;1.90;0.90;;;;;;;;;;5038994;28;20120;-72
2023/03/01 13:46:00;;;;;;;1.75;0.90;;;;;;;;;;5047832;28;20319;-70
2023/03/01 13:48:26;;;;;;;1.92;0.73;;;;;;;;;;5064404;28;20247;-70
2023/03/01 13:50:57;;;;;;;1.83;0.80;;;;;;;;;;5032547;28;20060;-72
2023/03/01 13:53:23;;;;;;;1.65;0.80;;;;;;;;;;5025755;28;20063;-70
2023/03/01 13:55:49;;;;;;;1.63;0.93;;;;;;;;;;5042077;28;20502;-69
2023/03/01 13:58:16;;;;;;;2.00;0.82;;;;;;;;;;5031568;28;20127;-67
2023/03/01 14:00:41;;;;;;;1.50;0.77;;;;;;;;;;5045134;28;20033;-69
2023/03/01 14:03:10;;;;;;;1.83;0.90;;;;;;;;;;5041969;28;20041;-69
2023/03/01 14:05:35;;;;;;;2.10;0.73;;;;;;;;;;5036300;28;20052;-69
2023/03/01 14:08:02;;;;;;;2.38;1.02;;;;;;;;;;5042478;28;20049;-72
2023/03/01 14:10:31;;;;;;;2.03;0.93;;;;;;;;;;5013470;28;20524;-70
2023/03/01 14:12:56;;;;;;;1.83;0.90;;;;;;;;;;5021668;28;20032;-71
2023/03/01 14:15:51;;;;;;;1.70;0.93;;;;;;;;;;5036360;28;20037;-67
2023/03/01 14:18:30;;;;;;;1.50;0.68;;;;;;;;;;5027897;28;20044;-71
2023/03/01 14:20:55;;;;;;;2.40;0.90;;;;;;;;;;5043848;28;20040;-69
2023/03/01 14:23:21;;;;;;;1.70;0.80;;;;;;;;;;5046781;28;20060;-69
2023/03/01 14:25:47;;;;;;;1.73;0.98;;;;;;;;;;5044998;28;20406;-69
2023/03/01 14:28:26;;;;;;;2.75;1.02;;;;;;;;;;5028211;28;20039;-72
2023/03/01 14:30:58;;;;;;;1.45;0.95;;;;;;;;;;5045085;28;20037;-71
2023/03/01 14:33:23;;;;;;;1.85;0.80;;;;;;;;;;5025020;28;20068;-70
2023/03/01 14:35:55;;;;;;;1.73;1.10;;;;;;;;;;5041271;28;20545;-70
2023/03/01 14:38:41;;;;;;;1.40;0.70;;;;;;;;;;5032713;28;20120;-72
2023/03/01 14:41:25;;;;;;;1.88;0.80;;;;;;;;;;5042914;28;20040;-73
2023/03/01 14:43:55;;;;;;;1.40;0.90;;;;;;;;;;5026107;28;20033;-73
2023/03/01 14:46:41;;;;;;;2.20;1.10;;;;;;;;;;5036408;28;20049;-71
2023/03/01 14:49:16;;;;;;;2.00;1.00;;;;;;;;;;5044807;28;20124;-72
2023/03/01 14:51:42;;;;;;;2.80;1.20;;;;;;;;;;5040212;28;20124;-69